Accueil
METAR-TAF:

METAR-TAF

Aéroports :

São José dos Campos, São Paulo, Brésil

latitude: 23-14S, longitude: 045-52W, altitude: 646 m

Observation

Le bulletin a été fait il y a 2 heures et 29 minutes, à 03:00 UTC
Vent 1 kt de sud/sud-est
Température 18°C
Humidité 88%
Pression 1017 hPa
Visibilité 10 km ou plus
Quelques nuages à une hauteur de 3000 ft

METAR: SBSJ 260300Z 16001KT 9999 FEW030 18/16 Q1017

Heure: 02:29 (05:29 UTC)

Prévision

Le bulletin a été fait il y a 8 heures et 29 minutes, à 21:00 UTC
Prévision valable du 26 à 00 UTC au 26 à 12 UTC
Vent 3 kt de sud/sud-ouest
Visibilité: 8000 m
Quelques nuages à une hauteur de 2000 ft
Probabilité 30%
du 26 à 09 UTC au 26 à 12 UTC
Visibilité: 5000 m
Nuages fragmentés à une hauteur de 1300 ft
brume

TAF: SBSJ 252100Z 2600/2612 21003KT 8000 FEW020 TX20/2600Z TN18/2609Z PROB30 2609/2612 5000 BR BKN013 RMK PGF

Observations et prévisions météorologiques de plus de 4000 aéroports (messages METAR et TAF).

Les stations disponibles sont représentées par des disques jaunes et rouges sur la carte.

Passer la souris dessus pour voir le nom de la station.

Cliquer dessus pour voir les observations et prévisions météorologiques.

Pour changer de carte: cliquez sur les boutons verts avec une croix noire pour zoomer, sur le bouton vert avec un tiret pour effectuer un zoom arrière, ou sur les flèches vertes pour les cartes adjacentes.


METAR-TAF: